createdAt,value
2022-10-31T00:01:31.629Z,22.85
2022-10-31T00:04:01.623Z,22.20
2022-10-31T00:06:30.336Z,22.35
2022-10-31T00:09:01.792Z,22.95
2022-10-31T00:11:30.780Z,22.85
2022-10-31T00:13:59.897Z,21.48
2022-10-31T00:16:29.757Z,22.80
2022-10-31T00:19:01.935Z,23.58
2022-10-31T00:21:32.037Z,22.42
2022-10-31T00:24:01.243Z,23.27
2022-10-31T00:26:32.145Z,22.67
2022-10-31T00:29:01.039Z,21.67
2022-10-31T00:31:29.798Z,23.17
2022-10-31T00:33:59.619Z,21.50
2022-10-31T00:36:30.034Z,21.55
2022-10-31T00:39:00.165Z,23.67
2022-10-31T00:41:28.274Z,24.50
2022-10-31T00:43:56.596Z,23.05
2022-10-31T00:46:25.760Z,26.20
2022-10-31T00:48:53.911Z,25.92
2022-10-31T00:51:22.332Z,27.33
2022-10-31T00:53:51.849Z,25.02
2022-10-31T00:56:20.050Z,25.73
2022-10-31T00:58:48.145Z,26.58
2022-10-31T01:01:16.926Z,26.27
2022-10-31T01:03:45.230Z,27.40
2022-10-31T01:06:16.848Z,28.63
2022-10-31T01:08:45.194Z,27.20
2022-10-31T01:11:19.248Z,28.63
2022-10-31T01:13:48.688Z,29.17
2022-10-31T01:16:20.351Z,27.85
2022-10-31T01:18:49.139Z,27.20
2022-10-31T01:21:20.359Z,28.73
2022-10-31T01:23:51.162Z,29.50
2022-10-31T01:26:23.719Z,28.50
2022-10-31T01:28:55.812Z,30.00
2022-10-31T01:31:27.848Z,29.80
2022-10-31T01:33:57.526Z,30.88
2022-10-31T01:36:28.308Z,29.90
2022-10-31T01:39:06.728Z,31.40
2022-10-31T01:41:40.123Z,30.65
2022-10-31T01:44:51.726Z,31.00
2022-10-31T01:47:28.697Z,30.58
2022-10-31T01:50:02.849Z,31.83
2022-10-31T01:52:37.634Z,31.10
2022-10-31T01:55:13.450Z,31.38
2022-10-31T01:57:48.664Z,31.52
2022-10-31T02:00:21.809Z,31.33
2022-10-31T02:02:52.202Z,31.80
2022-10-31T02:05:24.989Z,31.63
2022-10-31T02:08:00.186Z,32.03
2022-10-31T02:10:34.458Z,31.90
2022-10-31T02:13:07.258Z,32.00
2022-10-31T02:15:41.309Z,32.28
2022-10-31T02:18:10.615Z,32.72
2022-10-31T02:20:53.079Z,31.17
2022-10-31T02:24:11.950Z,31.63
2022-10-31T02:27:29.784Z,30.17
2022-10-31T02:30:14.880Z,31.95
2022-10-31T02:33:00.956Z,31.88
2022-10-31T02:35:52.312Z,32.03
2022-10-31T02:38:44.580Z,31.00
2022-10-31T02:41:28.924Z,30.67
2022-10-31T02:44:11.407Z,32.50
2022-10-31T02:46:49.820Z,33.42
2022-10-31T02:49:31.812Z,31.80
2022-10-31T02:52:00.103Z,33.78
2022-10-31T02:54:30.950Z,33.33
2022-10-31T02:57:06.238Z,30.63
2022-10-31T02:59:38.703Z,33.65
2022-10-31T03:02:58.463Z,33.63
2022-10-31T03:05:51.794Z,32.00
2022-10-31T03:08:29.039Z,32.78
2022-10-31T03:11:02.968Z,33.42
2022-10-31T03:13:41.299Z,31.05
2022-10-31T03:16:17.164Z,32.70
2022-10-31T03:18:54.288Z,31.98
2022-10-31T03:21:30.527Z,32.47
2022-10-31T03:24:04.112Z,31.63
2022-10-31T03:26:33.166Z,34.08
2022-10-31T03:29:06.695Z,33.53
2022-10-31T03:31:43.526Z,32.05
2022-10-31T03:34:14.622Z,33.38
2022-10-31T03:36:46.587Z,32.40
2022-10-31T03:39:19.775Z,33.30
2022-10-31T03:41:55.220Z,32.30
2022-10-31T03:44:26.127Z,34.58
2022-10-31T03:47:01.713Z,34.95
2022-10-31T03:49:31.439Z,34.75
2022-10-31T03:52:11.196Z,34.88
2022-10-31T03:54:46.077Z,36.28
2022-10-31T03:57:21.659Z,36.55
2022-10-31T03:59:58.088Z,36.25
2022-10-31T04:02:34.583Z,36.78
2022-10-31T04:05:04.797Z,36.53
2022-10-31T04:07:40.851Z,36.85
2022-10-31T04:10:14.532Z,37.53
2022-10-31T04:12:57.021Z,36.30
2022-10-31T04:15:30.920Z,37.17
2022-10-31T04:18:03.164Z,37.13
2022-10-31T04:20:33.503Z,35.85
2022-10-31T04:23:03.636Z,37.08
2022-10-31T04:25:33.048Z,36.63
2022-10-31T04:28:01.700Z,38.10
2022-10-31T04:30:31.773Z,38.50
2022-10-31T04:33:00.802Z,36.88
2022-10-31T04:35:29.181Z,36.88
2022-10-31T04:37:57.464Z,37.63
2022-10-31T04:40:27.300Z,38.53
2022-10-31T04:43:34.135Z,38.83
2022-10-31T04:46:03.582Z,37.90
2022-10-31T04:48:32.049Z,36.42
2022-10-31T04:51:04.878Z,35.88
2022-10-31T04:53:33.868Z,37.95
2022-10-31T04:56:29.420Z,37.25
2022-10-31T04:59:00.797Z,35.22
2022-10-31T05:01:33.152Z,36.17
2022-10-31T05:04:02.330Z,36.45
2022-10-31T05:06:32.347Z,35.55
2022-10-31T05:09:01.053Z,35.78
2022-10-31T05:11:31.098Z,33.83
2022-10-31T05:14:09.986Z,34.30
2022-10-31T05:17:01.125Z,34.13
2022-10-31T05:19:52.069Z,34.92
2022-10-31T05:22:45.514Z,34.35
2022-10-31T05:25:14.472Z,35.30
2022-10-31T05:27:45.915Z,35.20
2022-10-31T05:30:18.052Z,33.13
2022-10-31T05:32:48.775Z,32.67
2022-10-31T05:35:35.743Z,32.63
2022-10-31T05:38:25.540Z,32.92
2022-10-31T05:41:00.948Z,35.90
2022-10-31T05:43:31.455Z,33.25
2022-10-31T05:45:59.686Z,33.70
2022-10-31T05:48:46.224Z,32.70
2022-10-31T05:51:32.719Z,33.70
2022-10-31T05:54:00.953Z,34.58
2022-10-31T05:56:29.492Z,34.53
2022-10-31T05:58:59.219Z,32.67
2022-10-31T06:01:28.621Z,32.40
2022-10-31T06:03:59.223Z,33.80
2022-10-31T06:06:27.456Z,32.70
2022-10-31T06:08:55.751Z,32.85
2022-10-31T06:11:25.091Z,31.90
2022-10-31T06:14:06.845Z,31.23
2022-10-31T06:16:42.563Z,32.97
2022-10-31T06:19:33.915Z,30.75
2022-10-31T06:22:02.222Z,32.22
2022-10-31T06:24:30.986Z,32.08
2022-10-31T06:27:19.454Z,32.45
2022-10-31T06:29:49.187Z,31.83
2022-10-31T06:32:30.188Z,31.42
2022-10-31T06:34:58.325Z,32.25
2022-10-31T06:37:26.511Z,32.20
2022-10-31T06:39:59.799Z,32.20
2022-10-31T06:42:27.972Z,33.17
2022-10-31T06:44:57.420Z,32.85
2022-10-31T06:48:11.003Z,32.22
2022-10-31T06:50:37.177Z,31.73
2022-10-31T06:53:05.630Z,31.98
2022-10-31T06:55:33.870Z,31.77
2022-10-31T06:58:03.622Z,33.03
2022-10-31T07:00:34.459Z,31.08
2022-10-31T07:03:13.256Z,33.42
2022-10-31T07:05:42.142Z,33.47
2022-10-31T07:08:14.465Z,32.30
2022-10-31T07:10:44.767Z,32.00
2022-10-31T07:13:15.819Z,32.78
2022-10-31T07:15:53.608Z,32.35
2022-10-31T07:18:22.921Z,33.33
2022-10-31T07:20:51.252Z,32.25
2022-10-31T07:23:20.766Z,32.60
2022-10-31T07:26:01.767Z,30.55
2022-10-31T07:28:40.267Z,29.83
2022-10-31T07:31:10.305Z,29.02
2022-10-31T07:33:39.946Z,26.15
2022-10-31T07:36:26.648Z,25.13
2022-10-31T07:38:59.296Z,24.48
2022-10-31T07:41:27.486Z,25.80
2022-10-31T07:43:55.971Z,25.80
2022-10-31T07:46:45.390Z,24.40
2022-10-31T07:49:31.857Z,24.00
2022-10-31T07:52:20.252Z,24.48
2022-10-31T07:55:08.937Z,24.13
2022-10-31T07:57:38.605Z,24.20
2022-10-31T08:00:11.393Z,23.50
2022-10-31T08:02:46.868Z,22.50
2022-10-31T08:05:49.768Z,22.73
2022-10-31T08:08:38.523Z,20.65
2022-10-31T08:11:08.380Z,21.10
2022-10-31T08:13:36.539Z,21.63
2022-10-31T08:16:05.702Z,21.73
2022-10-31T08:18:39.327Z,20.70
2022-10-31T08:21:11.364Z,20.05
2022-10-31T08:23:39.531Z,21.25
2022-10-31T08:26:09.318Z,21.42
2022-10-31T08:28:37.661Z,21.45
2022-10-31T08:31:06.842Z,20.88
2022-10-31T08:33:41.995Z,21.98
2022-10-31T08:36:30.051Z,21.48
2022-10-31T08:39:04.868Z,21.63
2022-10-31T08:41:33.111Z,21.35
2022-10-31T08:44:02.355Z,20.90
2022-10-31T08:46:30.455Z,21.42
2022-10-31T08:49:00.065Z,21.98
2022-10-31T08:51:28.266Z,21.35
2022-10-31T08:53:57.689Z,19.77
2022-10-31T08:56:35.184Z,21.50
2022-10-31T08:59:06.633Z,20.52
2022-10-31T09:01:57.712Z,21.30
2022-10-31T09:04:28.028Z,21.10
2022-10-31T09:09:44.683Z,19.90
2022-10-31T09:12:12.738Z,19.38
2022-10-31T09:15:01.693Z,19.58
2022-10-31T09:17:52.131Z,21.58
2022-10-31T09:20:36.575Z,21.33
2022-10-31T09:23:08.400Z,20.25
2022-10-31T09:25:40.176Z,21.13
2022-10-31T09:28:26.779Z,18.65
2022-10-31T09:30:57.388Z,22.95
2022-10-31T09:33:45.887Z,21.60
2022-10-31T09:36:39.496Z,20.48
2022-10-31T09:39:21.044Z,21.45
2022-10-31T09:42:28.261Z,21.98
2022-10-31T09:45:13.354Z,22.45
2022-10-31T09:48:05.724Z,22.67
2022-10-31T09:50:43.204Z,21.80
2022-10-31T09:53:58.329Z,22.55
2022-10-31T09:56:29.689Z,23.20
2022-10-31T09:59:04.694Z,22.67
2022-10-31T10:01:45.076Z,23.15
2022-10-31T10:04:36.208Z,23.55
2022-10-31T10:07:28.687Z,23.20
2022-10-31T10:10:32.641Z,23.15
2022-10-31T10:13:44.945Z,25.05
2022-10-31T10:16:38.477Z,23.75
2022-10-31T10:19:25.207Z,22.65
2022-10-31T10:22:03.462Z,20.65
2022-10-31T10:24:53.766Z,21.55
2022-10-31T10:27:43.649Z,20.55
2022-10-31T10:30:18.338Z,21.10
2022-10-31T10:32:52.229Z,20.75
2022-10-31T10:35:27.818Z,19.52
2022-10-31T10:38:02.600Z,20.20
2022-10-31T10:40:31.408Z,19.70
2022-10-31T10:43:20.798Z,20.13
2022-10-31T10:46:14.454Z,20.48
2022-10-31T10:48:52.724Z,19.98
2022-10-31T10:51:39.116Z,19.92
2022-10-31T10:54:35.681Z,17.67
2022-10-31T10:57:20.944Z,17.80
2022-10-31T10:59:51.392Z,17.55
2022-10-31T11:02:25.158Z,17.42
2022-10-31T11:04:56.731Z,16.48
2022-10-31T11:07:26.544Z,16.45
2022-10-31T11:10:13.990Z,15.35
2022-10-31T11:12:43.789Z,15.82
2022-10-31T11:15:23.394Z,15.73
2022-10-31T11:17:54.686Z,15.85
2022-10-31T11:20:35.437Z,15.77
2022-10-31T11:23:19.498Z,15.40
2022-10-31T11:25:53.720Z,17.00
2022-10-31T11:28:22.247Z,16.25
2022-10-31T11:30:56.325Z,14.10
2022-10-31T11:33:33.051Z,15.98
2022-10-31T11:36:03.910Z,16.73
2022-10-31T11:38:42.445Z,17.17
2022-10-31T11:41:17.775Z,16.45
2022-10-31T11:43:52.263Z,15.82
2022-10-31T11:46:30.633Z,14.65
2022-10-31T11:48:59.110Z,15.68
2022-10-31T11:51:33.540Z,14.20
2022-10-31T11:54:05.146Z,16.95
2022-10-31T11:56:41.750Z,18.95
2022-10-31T11:59:27.595Z,20.25
2022-10-31T12:02:00.757Z,26.13
2022-10-31T12:04:42.551Z,29.33
2022-10-31T12:07:10.862Z,28.75
2022-10-31T12:09:41.899Z,28.20
2022-10-31T12:12:37.725Z,32.08
2022-10-31T12:15:33.099Z,31.42
2022-10-31T12:18:39.429Z,30.05
2022-10-31T12:21:25.793Z,32.22
2022-10-31T12:24:10.744Z,29.20
2022-10-31T12:26:52.483Z,30.02
2022-10-31T12:29:38.585Z,29.35
2022-10-31T12:32:31.697Z,29.30
2022-10-31T12:35:31.960Z,29.50
2022-10-31T12:38:35.727Z,29.13
2022-10-31T12:41:26.548Z,27.92
2022-10-31T12:44:07.315Z,27.55
2022-10-31T12:47:01.574Z,27.42
2022-10-31T12:49:50.357Z,26.48
2022-10-31T12:52:39.439Z,26.85
2022-10-31T12:55:25.566Z,26.20
2022-10-31T12:58:02.892Z,22.98
2022-10-31T13:00:37.705Z,25.35
2022-10-31T13:03:26.180Z,25.92
2022-10-31T13:06:00.183Z,25.10
2022-10-31T13:08:38.345Z,24.50
2022-10-31T13:11:13.566Z,23.73
2022-10-31T13:13:47.730Z,25.77
2022-10-31T13:16:19.411Z,24.05
2022-10-31T13:18:59.417Z,24.50
2022-10-31T13:21:33.011Z,26.70
2022-10-31T13:24:09.862Z,25.95
2022-10-31T13:26:43.885Z,24.85
2022-10-31T13:29:23.154Z,27.85
2022-10-31T13:31:53.129Z,25.00
2022-10-31T13:34:29.125Z,27.17
2022-10-31T13:37:07.269Z,27.50
2022-10-31T13:39:57.818Z,28.30
2022-10-31T13:42:41.501Z,27.33
2022-10-31T13:45:16.181Z,27.27
2022-10-31T13:47:44.824Z,26.58
2022-10-31T13:50:25.147Z,25.45
2022-10-31T13:52:53.322Z,24.58
2022-10-31T13:55:42.378Z,25.50
2022-10-31T13:58:28.263Z,25.30
2022-10-31T14:01:18.860Z,26.08
2022-10-31T14:04:07.840Z,24.05
2022-10-31T14:06:51.930Z,23.75
2022-10-31T14:09:29.330Z,22.88
2022-10-31T14:12:04.720Z,22.05
2022-10-31T14:14:45.869Z,22.35
2022-10-31T14:17:24.029Z,20.38
2022-10-31T14:20:03.921Z,21.55
2022-10-31T14:22:37.434Z,20.30
2022-10-31T14:25:29.015Z,19.75
2022-10-31T14:28:00.786Z,17.92
2022-10-31T14:30:31.723Z,18.08
2022-10-31T14:33:04.104Z,17.58
2022-10-31T14:35:56.106Z,18.25
2022-10-31T14:38:53.320Z,17.52
2022-10-31T14:41:50.598Z,18.00
2022-10-31T14:45:07.894Z,18.65
2022-10-31T14:47:50.280Z,17.20
2022-10-31T14:50:34.879Z,16.70
2022-10-31T14:53:08.230Z,17.20
2022-10-31T14:55:41.874Z,16.77
2022-10-31T14:58:10.507Z,16.45
2022-10-31T15:00:40.153Z,16.42
2022-10-31T15:03:17.896Z,16.42
2022-10-31T15:05:52.459Z,16.90
2022-10-31T15:08:35.177Z,17.25
2022-10-31T15:11:13.343Z,16.52
2022-10-31T15:13:49.733Z,18.75
2022-10-31T15:16:23.371Z,18.67
2022-10-31T15:18:56.948Z,18.77
2022-10-31T15:21:29.184Z,17.50
2022-10-31T15:24:01.118Z,18.63
2022-10-31T15:26:41.388Z,18.65
2022-10-31T15:29:16.301Z,18.08
2022-10-31T15:31:54.012Z,19.83
2022-10-31T15:34:30.552Z,19.63
2022-10-31T15:36:58.684Z,19.70
2022-10-31T15:39:26.838Z,18.83
2022-10-31T15:41:58.101Z,18.20
2022-10-31T15:44:30.657Z,18.73
2022-10-31T15:47:02.998Z,17.95
2022-10-31T15:49:39.561Z,18.98
2022-10-31T15:52:17.788Z,18.58
2022-10-31T15:54:52.172Z,18.30
2022-10-31T15:57:20.777Z,18.20
2022-10-31T15:59:51.364Z,17.92
2022-10-31T16:02:25.581Z,18.08
2022-10-31T16:04:57.391Z,19.90
2022-10-31T16:07:26.933Z,20.13
2022-10-31T16:09:58.658Z,20.58
2022-10-31T16:12:38.280Z,21.17
2022-10-31T16:15:15.774Z,19.27
2022-10-31T16:17:51.046Z,19.05
2022-10-31T16:20:25.919Z,19.77
2022-10-31T16:22:56.957Z,19.58
2022-10-31T16:25:30.707Z,18.65
2022-10-31T16:28:06.268Z,17.77
2022-10-31T16:30:47.919Z,17.05
2022-10-31T16:33:29.523Z,17.95
2022-10-31T16:36:15.609Z,17.27
2022-10-31T16:38:48.419Z,16.73
2022-10-31T16:41:16.669Z,17.98
2022-10-31T16:43:48.848Z,17.38
2022-10-31T16:46:26.270Z,18.88
2022-10-31T16:48:56.795Z,17.98
2022-10-31T16:51:25.006Z,17.48
2022-10-31T16:53:54.324Z,17.38
2022-10-31T16:56:29.627Z,21.67
2022-10-31T16:58:58.263Z,18.67
2022-10-31T17:01:26.605Z,18.98
2022-10-31T17:03:56.146Z,18.13
2022-10-31T17:06:24.311Z,19.05
2022-10-31T17:08:52.424Z,17.63
2022-10-31T17:11:27.028Z,18.08
2022-10-31T17:13:57.282Z,16.63
2022-10-31T17:16:25.650Z,16.33
2022-10-31T17:18:55.172Z,17.33
2022-10-31T17:21:27.916Z,17.55
2022-10-31T17:23:56.356Z,17.10
2022-10-31T17:26:24.545Z,17.55
2022-10-31T17:28:52.819Z,17.30
2022-10-31T17:31:29.559Z,17.73
2022-10-31T17:34:02.472Z,18.33
2022-10-31T17:36:32.028Z,17.13
2022-10-31T17:39:00.195Z,18.83
2022-10-31T17:41:28.411Z,18.20
2022-10-31T17:43:57.037Z,18.83
2022-10-31T17:46:25.128Z,18.20
2022-10-31T17:48:53.232Z,18.58
2022-10-31T17:51:22.806Z,18.50
2022-10-31T17:53:50.927Z,18.73
2022-10-31T17:56:19.247Z,20.38
2022-10-31T17:58:47.529Z,20.38
2022-10-31T18:01:20.445Z,19.60
2022-10-31T18:03:48.663Z,20.17
2022-10-31T18:06:17.349Z,19.65
2022-10-31T18:08:47.210Z,18.85
2022-10-31T18:11:18.548Z,21.02
2022-10-31T18:13:46.718Z,19.67
2022-10-31T18:16:19.019Z,20.00
2022-10-31T18:18:52.329Z,21.90
2022-10-31T18:21:20.777Z,21.45
2022-10-31T18:23:55.151Z,20.00
2022-10-31T18:26:24.732Z,20.77
2022-10-31T18:28:53.049Z,22.70
2022-10-31T18:31:21.806Z,20.67
2022-10-31T18:36:24.629Z,22.13
2022-10-31T18:38:54.392Z,22.13
2022-10-31T18:41:22.686Z,20.52
2022-10-31T18:43:51.425Z,21.35
2022-10-31T18:46:19.570Z,21.10
2022-10-31T18:48:47.653Z,20.40
2022-10-31T18:51:18.529Z,19.85
2022-10-31T18:53:53.438Z,21.33
2022-10-31T18:56:23.192Z,20.58
2022-10-31T18:58:52.231Z,20.10
2022-10-31T19:01:22.897Z,19.00
2022-10-31T19:03:56.182Z,18.48
2022-10-31T19:06:24.893Z,17.90
2022-10-31T19:08:59.872Z,19.05
2022-10-31T19:11:28.709Z,19.42
2022-10-31T19:13:58.243Z,18.33
2022-10-31T19:16:26.695Z,19.23
2022-10-31T19:18:56.525Z,18.52
2022-10-31T19:21:25.308Z,19.20
2022-10-31T19:23:57.259Z,18.77
2022-10-31T19:26:26.072Z,19.92
2022-10-31T19:28:56.000Z,19.15
2022-10-31T19:31:24.864Z,20.33
2022-10-31T19:33:53.052Z,19.42
2022-10-31T19:36:22.483Z,19.15
2022-10-31T19:38:54.214Z,19.77
2022-10-31T19:41:26.017Z,20.15
2022-10-31T19:43:54.841Z,19.77
2022-10-31T19:49:13.572Z,19.02
2022-10-31T19:51:41.664Z,20.10
2022-10-31T19:54:12.532Z,20.30
2022-10-31T19:56:40.628Z,20.23
2022-10-31T19:59:08.956Z,18.98
2022-10-31T20:01:37.323Z,19.48
2022-10-31T20:04:05.681Z,19.40
2022-10-31T20:06:37.276Z,19.83
2022-10-31T20:09:09.599Z,19.98
2022-10-31T20:11:39.641Z,20.48
2022-10-31T20:14:09.435Z,19.20
2022-10-31T20:16:37.840Z,18.30
2022-10-31T20:19:06.200Z,19.27
2022-10-31T20:21:39.590Z,20.80
2022-10-31T20:24:11.257Z,20.02
2022-10-31T20:26:42.431Z,19.88
2022-10-31T20:29:15.750Z,20.10
2022-10-31T20:31:45.930Z,20.05
2022-10-31T20:34:14.340Z,22.05
2022-10-31T20:36:42.441Z,23.33
2022-10-31T20:39:11.192Z,20.45
2022-10-31T20:41:40.645Z,22.02
2022-10-31T20:44:09.046Z,21.27
2022-10-31T20:46:37.257Z,22.13
2022-10-31T20:49:05.370Z,22.20
2022-10-31T20:51:33.555Z,21.83
2022-10-31T20:54:01.992Z,22.85
2022-10-31T20:56:30.342Z,21.92
2022-10-31T20:59:00.011Z,23.10
2022-10-31T21:01:31.159Z,22.40
2022-10-31T21:04:00.536Z,24.27
2022-10-31T21:06:30.603Z,22.05
2022-10-31T21:08:59.264Z,24.52
2022-10-31T21:11:29.232Z,24.27
2022-10-31T21:13:59.340Z,23.60
2022-10-31T21:16:31.001Z,24.02
2022-10-31T21:19:01.768Z,23.45
2022-10-31T21:21:33.523Z,24.13
2022-10-31T21:24:04.708Z,22.92
2022-10-31T21:26:36.782Z,24.23
2022-10-31T21:29:08.001Z,25.15
2022-10-31T21:31:37.571Z,24.83
2022-10-31T21:34:06.256Z,24.30
2022-10-31T21:36:35.456Z,26.98
2022-10-31T21:39:05.063Z,25.20
2022-10-31T21:41:33.193Z,25.63
2022-10-31T21:44:01.591Z,25.73
2022-10-31T21:46:32.935Z,25.10
2022-10-31T21:49:03.674Z,26.45
2022-10-31T21:51:34.960Z,26.63
2022-10-31T21:54:20.543Z,28.13
2022-10-31T21:56:48.773Z,26.08
2022-10-31T21:59:16.858Z,26.33
2022-10-31T22:01:46.551Z,25.88
2022-10-31T22:04:14.845Z,26.50
2022-10-31T22:06:43.099Z,26.77
2022-10-31T22:09:15.890Z,27.55
2022-10-31T22:11:44.311Z,26.83
2022-10-31T22:14:14.589Z,28.83
2022-10-31T22:16:43.505Z,27.98
2022-10-31T22:19:15.331Z,27.63
2022-10-31T22:21:46.324Z,27.30
2022-10-31T22:24:15.602Z,27.52
2022-10-31T22:26:44.527Z,28.08
2022-10-31T22:29:16.230Z,27.70
2022-10-31T22:31:48.426Z,29.45
2022-10-31T22:34:20.400Z,26.80
2022-10-31T22:36:48.516Z,27.23
2022-10-31T22:39:16.604Z,28.55
2022-10-31T22:41:44.721Z,28.73
2022-10-31T22:44:12.784Z,29.27
2022-10-31T22:46:41.278Z,27.58
2022-10-31T22:49:14.855Z,28.25
2022-10-31T22:51:45.981Z,26.65
2022-10-31T22:54:17.208Z,28.50
2022-10-31T22:56:46.348Z,26.30
2022-10-31T22:59:17.252Z,27.07
2022-10-31T23:01:46.256Z,28.08
2022-10-31T23:04:15.385Z,27.50
2022-10-31T23:06:45.379Z,27.40
2022-10-31T23:09:18.385Z,26.95
2022-10-31T23:11:47.297Z,28.40
2022-10-31T23:14:20.391Z,29.20
2022-10-31T23:16:51.635Z,30.15
2022-10-31T23:19:22.994Z,29.23
2022-10-31T23:21:55.993Z,29.95
2022-10-31T23:24:28.097Z,30.83
2022-10-31T23:27:09.641Z,30.63
2022-10-31T23:29:43.160Z,31.10
2022-10-31T23:32:16.471Z,29.65
2022-10-31T23:34:45.531Z,30.77
2022-10-31T23:37:16.579Z,29.42
2022-10-31T23:39:45.244Z,31.27
2022-10-31T23:42:14.126Z,29.70
2022-10-31T23:44:42.888Z,29.38
2022-10-31T23:47:11.417Z,30.83
2022-10-31T23:49:39.747Z,28.88
2022-10-31T23:52:08.369Z,29.75
2022-10-31T23:54:38.044Z,30.13
2022-10-31T23:57:06.823Z,28.98
2022-10-31T23:59:35.146Z,29.75
